sensor_id;sensor_type;location;lat;lon;timestamp;pressure;altitude;pressure_sealevel;temperature;humidity
75420;BME280;63998;52.488;13.428;2023-01-04T00:00:28;102102.91;;;6.04;74.15
75420;BME280;63998;52.488;13.428;2023-01-04T00:02:55;102093.59;;;6.08;74.38
75420;BME280;63998;52.488;13.428;2023-01-04T00:05:21;102100.28;;;6.03;75.18
75420;BME280;63998;52.488;13.428;2023-01-04T00:07:46;102084.16;;;6.08;74.02
75420;BME280;63998;52.488;13.428;2023-01-04T00:10:11;102074.78;;;6.10;74.53
75420;BME280;63998;52.488;13.428;2023-01-04T00:12:37;102067.63;;;6.03;74.16
75420;BME280;63998;52.488;13.428;2023-01-04T00:15:05;102070.44;;;6.09;75.33
75420;BME280;63998;52.488;13.428;2023-01-04T00:17:30;102065.16;;;6.06;73.94
75420;BME280;63998;52.488;13.428;2023-01-04T00:19:58;102066.41;;;5.95;73.85
75420;BME280;63998;52.488;13.428;2023-01-04T00:22:26;102064.63;;;5.94;74.67
75420;BME280;63998;52.488;13.428;2023-01-04T00:24:51;102059.25;;;5.88;74.89
75420;BME280;63998;52.488;13.428;2023-01-04T00:27:16;102057.31;;;5.84;74.28
75420;BME280;63998;52.488;13.428;2023-01-04T00:29:42;102042.56;;;5.80;74.73
75420;BME280;63998;52.488;13.428;2023-01-04T00:32:09;102043.75;;;5.69;74.69
75420;BME280;63998;52.488;13.428;2023-01-04T00:34:35;102039.84;;;5.77;74.83
75420;BME280;63998;52.488;13.428;2023-01-04T00:37:03;102038.06;;;5.76;74.98
75420;BME280;63998;52.488;13.428;2023-01-04T00:39:28;102023.28;;;5.72;75.15
75420;BME280;63998;52.488;13.428;2023-01-04T00:41:54;102022.09;;;5.64;74.70
75420;BME280;63998;52.488;13.428;2023-01-04T00:44:30;102021.81;;;5.58;75.29
75420;BME280;63998;52.488;13.428;2023-01-04T00:46:57;102018.84;;;5.68;75.75
75420;BME280;63998;52.488;13.428;2023-01-04T00:49:24;101997.94;;;5.62;75.63
75420;BME280;63998;52.488;13.428;2023-01-04T00:51:52;102005.09;;;5.48;75.36
75420;BME280;63998;52.488;13.428;2023-01-04T00:54:18;102004.34;;;5.51;75.60
75420;BME280;63998;52.488;13.428;2023-01-04T00:56:47;101989.00;;;5.54;75.60
75420;BME280;63998;52.488;13.428;2023-01-04T00:59:14;101981.28;;;5.54;76.00
75420;BME280;63998;52.488;13.428;2023-01-04T01:01:41;101979.00;;;5.40;75.75
75420;BME280;63998;52.488;13.428;2023-01-04T01:04:08;101964.06;;;5.33;75.73
75420;BME280;63998;52.488;13.428;2023-01-04T01:06:35;101954.47;;;5.29;75.59
75420;BME280;63998;52.488;13.428;2023-01-04T01:09:00;101960.59;;;5.31;76.28
75420;BME280;63998;52.488;13.428;2023-01-04T01:11:29;101973.13;;;5.24;76.27
75420;BME280;63998;52.488;13.428;2023-01-04T01:13:54;101963.31;;;5.15;76.13
75420;BME280;63998;52.488;13.428;2023-01-04T01:16:22;101970.06;;;5.13;76.27
75420;BME280;63998;52.488;13.428;2023-01-04T01:18:48;101971.44;;;5.05;76.06
75420;BME280;63998;52.488;13.428;2023-01-04T01:21:19;101971.69;;;5.11;76.34
75420;BME280;63998;52.488;13.428;2023-01-04T01:23:47;101975.22;;;5.13;76.97
75420;BME280;63998;52.488;13.428;2023-01-04T01:26:15;101966.69;;;5.14;76.67
75420;BME280;63998;52.488;13.428;2023-01-04T01:28:41;101971.03;;;5.15;75.97
75420;BME280;63998;52.488;13.428;2023-01-04T01:31:13;101959.38;;;5.04;76.57
75420;BME280;63998;52.488;13.428;2023-01-04T01:33:39;101959.78;;;5.13;76.46
75420;BME280;63998;52.488;13.428;2023-01-04T01:36:06;101960.06;;;5.19;76.63
75420;BME280;63998;52.488;13.428;2023-01-04T01:38:32;101963.56;;;5.21;76.49
75420;BME280;63998;52.488;13.428;2023-01-04T01:40:58;101961.19;;;5.26;75.89
75420;BME280;63998;52.488;13.428;2023-01-04T01:43:47;101963.84;;;5.27;76.24
75420;BME280;63998;52.488;13.428;2023-01-04T01:46:13;101958.53;;;5.24;75.65
75420;BME280;63998;52.488;13.428;2023-01-04T01:48:40;101956.09;;;5.27;76.01
75420;BME280;63998;52.488;13.428;2023-01-04T01:51:08;101963.69;;;5.24;75.45
75420;BME280;63998;52.488;13.428;2023-01-04T01:53:37;101963.56;;;5.21;75.86
75420;BME280;63998;52.488;13.428;2023-01-04T01:56:05;101965.22;;;5.19;75.04
75420;BME280;63998;52.488;13.428;2023-01-04T01:58:36;101971.34;;;5.23;75.61
75420;BME280;63998;52.488;13.428;2023-01-04T02:01:03;101955.44;;;5.31;76.24
75420;BME280;63998;52.488;13.428;2023-01-04T02:03:35;101959.69;;;5.31;75.01
75420;BME280;63998;52.488;13.428;2023-01-04T02:06:04;101952.72;;;5.09;74.88
75420;BME280;63998;52.488;13.428;2023-01-04T02:08:32;101946.59;;;5.05;75.79
75420;BME280;63998;52.488;13.428;2023-01-04T02:11:00;101941.88;;;4.97;75.76
75420;BME280;63998;52.488;13.428;2023-01-04T02:13:28;101945.56;;;5.02;75.40
75420;BME280;63998;52.488;13.428;2023-01-04T02:16:25;101930.25;;;5.05;76.24
75420;BME280;63998;52.488;13.428;2023-01-04T02:18:56;101916.44;;;5.03;75.53
75420;BME280;63998;52.488;13.428;2023-01-04T02:27:40;101875.47;;;5.09;75.67
75420;BME280;63998;52.488;13.428;2023-01-04T02:30:19;101878.84;;;5.08;75.91
75420;BME280;63998;52.488;13.428;2023-01-04T02:33:15;101861.91;;;5.13;76.22
75420;BME280;63998;52.488;13.428;2023-01-04T02:36:06;101864.34;;;5.10;75.25
75420;BME280;63998;52.488;13.428;2023-01-04T02:41:33;101858.41;;;5.11;75.88
75420;BME280;63998;52.488;13.428;2023-01-04T02:46:54;101841.19;;;5.10;75.53
75420;BME280;63998;52.488;13.428;2023-01-04T02:49:24;101827.34;;;5.08;74.86
75420;BME280;63998;52.488;13.428;2023-01-04T02:52:11;101821.00;;;5.19;75.81
75420;BME280;63998;52.488;13.428;2023-01-04T02:54:42;101815.94;;;5.22;76.21
75420;BME280;63998;52.488;13.428;2023-01-04T03:00:14;101827.66;;;4.95;75.06
75420;BME280;63998;52.488;13.428;2023-01-04T03:08:36;101813.34;;;4.81;76.18
75420;BME280;63998;52.488;13.428;2023-01-04T03:11:12;101810.88;;;4.84;76.63
75420;BME280;63998;52.488;13.428;2023-01-04T03:14:04;101798.16;;;4.87;75.97
75420;BME280;63998;52.488;13.428;2023-01-04T03:16:34;101803.06;;;4.81;75.96
75420;BME280;63998;52.488;13.428;2023-01-04T03:19:02;101790.19;;;4.81;76.13
75420;BME280;63998;52.488;13.428;2023-01-04T03:21:34;101786.84;;;4.83;76.51
75420;BME280;63998;52.488;13.428;2023-01-04T03:24:01;101782.78;;;4.88;76.28
75420;BME280;63998;52.488;13.428;2023-01-04T03:26:54;101782.16;;;4.94;76.38
75420;BME280;63998;52.488;13.428;2023-01-04T03:29:46;101778.72;;;4.93;75.79
75420;BME280;63998;52.488;13.428;2023-01-04T03:32:47;101770.22;;;4.96;76.13
75420;BME280;63998;52.488;13.428;2023-01-04T03:38:47;101761.00;;;5.01;75.92
75420;BME280;63998;52.488;13.428;2023-01-04T03:41:41;101746.09;;;5.15;76.51
75420;BME280;63998;52.488;13.428;2023-01-04T03:44:35;101742.78;;;5.17;75.73
75420;BME280;63998;52.488;13.428;2023-01-04T03:47:48;101736.91;;;5.21;75.51
75420;BME280;63998;52.488;13.428;2023-01-04T03:50:46;101718.59;;;5.14;75.16
75420;BME280;63998;52.488;13.428;2023-01-04T03:53:14;101717.34;;;5.04;74.78
75420;BME280;63998;52.488;13.428;2023-01-04T03:55:41;101713.78;;;5.00;75.08
75420;BME280;63998;52.488;13.428;2023-01-04T03:58:07;101706.66;;;4.95;75.34
75420;BME280;63998;52.488;13.428;2023-01-04T04:00:33;101721.75;;;4.86;74.99
75420;BME280;63998;52.488;13.428;2023-01-04T04:02:59;101702.78;;;4.84;75.26
75420;BME280;63998;52.488;13.428;2023-01-04T04:05:35;101691.00;;;4.89;76.12
75420;BME280;63998;52.488;13.428;2023-01-04T04:08:19;101697.63;;;4.84;75.68
75420;BME280;63998;52.488;13.428;2023-01-04T04:11:03;101697.72;;;4.85;76.29
75420;BME280;63998;52.488;13.428;2023-01-04T04:13:48;101681.81;;;4.95;76.37
75420;BME280;63998;52.488;13.428;2023-01-04T04:16:14;101684.09;;;4.88;76.43
75420;BME280;63998;52.488;13.428;2023-01-04T04:18:42;101671.81;;;4.81;76.08
75420;BME280;63998;52.488;13.428;2023-01-04T04:21:07;101671.16;;;4.86;76.71
75420;BME280;63998;52.488;13.428;2023-01-04T04:23:32;101659.75;;;4.80;76.35
75420;BME280;63998;52.488;13.428;2023-01-04T04:26:01;101655.28;;;4.76;76.31
75420;BME280;63998;52.488;13.428;2023-01-04T04:28:28;101646.63;;;4.74;76.04
75420;BME280;63998;52.488;13.428;2023-01-04T04:30:54;101638.09;;;4.75;76.15
75420;BME280;63998;52.488;13.428;2023-01-04T04:33:19;101633.41;;;4.64;76.12
75420;BME280;63998;52.488;13.428;2023-01-04T04:35:49;101630.81;;;4.64;76.21
75420;BME280;63998;52.488;13.428;2023-01-04T04:38:15;101630.69;;;4.61;76.86
75420;BME280;63998;52.488;13.428;2023-01-04T04:40:40;101617.59;;;4.55;76.49
75420;BME280;63998;52.488;13.428;2023-01-04T04:43:24;101614.53;;;4.43;76.89
75420;BME280;63998;52.488;13.428;2023-01-04T04:45:50;101602.25;;;4.58;78.00
75420;BME280;63998;52.488;13.428;2023-01-04T04:48:15;101604.59;;;4.52;77.33
75420;BME280;63998;52.488;13.428;2023-01-04T04:50:40;101597.25;;;4.61;77.37
75420;BME280;63998;52.488;13.428;2023-01-04T04:53:06;101585.59;;;4.69;77.09
75420;BME280;63998;52.488;13.428;2023-01-04T04:55:31;101578.78;;;4.72;77.27
75420;BME280;63998;52.488;13.428;2023-01-04T04:57:56;101561.00;;;4.78;77.37
75420;BME280;63998;52.488;13.428;2023-01-04T05:00:22;101567.19;;;4.83;76.63
75420;BME280;63998;52.488;13.428;2023-01-04T05:02:49;101561.94;;;4.80;76.63
75420;BME280;63998;52.488;13.428;2023-01-04T05:05:15;101554.44;;;4.86;76.55
75420;BME280;63998;52.488;13.428;2023-01-04T05:07:40;101541.91;;;4.95;77.25
75420;BME280;63998;52.488;13.428;2023-01-04T05:10:06;101539.81;;;4.85;76.45
75420;BME280;63998;52.488;13.428;2023-01-04T05:12:31;101525.50;;;4.91;76.68
75420;BME280;63998;52.488;13.428;2023-01-04T05:15:15;101547.31;;;4.79;76.84
75420;BME280;63998;52.488;13.428;2023-01-04T05:17:41;101521.13;;;4.89;76.31
75420;BME280;63998;52.488;13.428;2023-01-04T05:20:10;101514.34;;;4.91;77.05
75420;BME280;63998;52.488;13.428;2023-01-04T05:22:35;101504.16;;;4.94;76.49
75420;BME280;63998;52.488;13.428;2023-01-04T05:25:03;101503.09;;;4.89;76.56
75420;BME280;63998;52.488;13.428;2023-01-04T05:27:28;101491.97;;;4.90;77.15
75420;BME280;63998;52.488;13.428;2023-01-04T05:29:54;101484.47;;;4.96;77.25
75420;BME280;63998;52.488;13.428;2023-01-04T05:32:37;101476.75;;;4.96;76.55
75420;BME280;63998;52.488;13.428;2023-01-04T05:35:03;101476.03;;;5.00;76.60
75420;BME280;63998;52.488;13.428;2023-01-04T05:37:28;101465.75;;;5.00;76.61
75420;BME280;63998;52.488;13.428;2023-01-04T05:39:53;101456.06;;;4.93;76.92
75420;BME280;63998;52.488;13.428;2023-01-04T05:42:21;101445.97;;;4.99;76.88
75420;BME280;63998;52.488;13.428;2023-01-04T05:44:53;101442.91;;;5.09;76.95
75420;BME280;63998;52.488;13.428;2023-01-04T05:47:18;101431.19;;;5.17;76.84
75420;BME280;63998;52.488;13.428;2023-01-04T05:49:48;101428.81;;;5.23;76.84
75420;BME280;63998;52.488;13.428;2023-01-04T05:52:14;101425.47;;;5.26;76.13
75420;BME280;63998;52.488;13.428;2023-01-04T05:54:42;101412.66;;;5.27;76.61
75420;BME280;63998;52.488;13.428;2023-01-04T05:57:08;101412.75;;;5.30;75.93
75420;BME280;63998;52.488;13.428;2023-01-04T05:59:34;101408.56;;;5.34;76.39
75420;BME280;63998;52.488;13.428;2023-01-04T06:01:59;101403.34;;;5.31;76.24
75420;BME280;63998;52.488;13.428;2023-01-04T06:04:25;101405.16;;;5.35;76.04
75420;BME280;63998;52.488;13.428;2023-01-04T06:06:51;101405.22;;;5.36;76.09
75420;BME280;63998;52.488;13.428;2023-01-04T06:09:16;101401.00;;;5.38;76.05
75420;BME280;63998;52.488;13.428;2023-01-04T06:11:44;101387.50;;;5.46;75.99
75420;BME280;63998;52.488;13.428;2023-01-04T06:14:10;101379.69;;;5.43;75.88
75420;BME280;63998;52.488;13.428;2023-01-04T06:16:35;101375.44;;;5.45;75.78
75420;BME280;63998;52.488;13.428;2023-01-04T06:19:03;101375.34;;;5.41;75.72
75420;BME280;63998;52.488;13.428;2023-01-04T06:21:28;101367.88;;;5.49;76.10
75420;BME280;63998;52.488;13.428;2023-01-04T06:23:53;101373.22;;;5.55;75.17
75420;BME280;63998;52.488;13.428;2023-01-04T06:26:19;101369.81;;;5.56;75.48
75420;BME280;63998;52.488;13.428;2023-01-04T06:28:44;101358.81;;;5.62;75.08
75420;BME280;63998;52.488;13.428;2023-01-04T06:31:10;101346.47;;;5.52;75.02
75420;BME280;63998;52.488;13.428;2023-01-04T06:33:36;101348.34;;;5.56;75.00
75420;BME280;63998;52.488;13.428;2023-01-04T06:36:02;101345.84;;;5.59;75.16
75420;BME280;63998;52.488;13.428;2023-01-04T06:38:29;101331.41;;;5.64;75.18
75420;BME280;63998;52.488;13.428;2023-01-04T06:40:54;101331.56;;;5.68;75.34
75420;BME280;63998;52.488;13.428;2023-01-04T06:43:19;101328.56;;;5.83;75.45
75420;BME280;63998;52.488;13.428;2023-01-04T06:45:45;101321.75;;;5.85;74.85
75420;BME280;63998;52.488;13.428;2023-01-04T06:48:10;101311.13;;;5.74;74.13
75420;BME280;63998;52.488;13.428;2023-01-04T06:50:36;101316.22;;;5.73;74.14
75420;BME280;63998;52.488;13.428;2023-01-04T06:53:01;101319.91;;;5.81;74.10
75420;BME280;63998;52.488;13.428;2023-01-04T06:55:27;101304.88;;;5.95;74.84
75420;BME280;63998;52.488;13.428;2023-01-04T06:57:54;101298.31;;;6.04;74.34
75420;BME280;63998;52.488;13.428;2023-01-04T07:00:19;101294.66;;;5.98;73.59
75420;BME280;63998;52.488;13.428;2023-01-04T07:02:47;101301.63;;;6.00;73.21
75420;BME280;63998;52.488;13.428;2023-01-04T07:05:13;101288.06;;;6.07;73.05
75420;BME280;63998;52.488;13.428;2023-01-04T07:07:38;101287.38;;;6.13;72.68
75420;BME280;63998;52.488;13.428;2023-01-04T07:10:04;101274.63;;;6.18;73.32
75420;BME280;63998;52.488;13.428;2023-01-04T07:12:30;101284.94;;;6.18;72.18
75420;BME280;63998;52.488;13.428;2023-01-04T07:14:56;101271.47;;;6.28;72.34
75420;BME280;63998;52.488;13.428;2023-01-04T07:17:21;101262.31;;;6.39;72.61
75420;BME280;63998;52.488;13.428;2023-01-04T07:19:46;101273.47;;;6.38;71.93
75420;BME280;63998;52.488;13.428;2023-01-04T07:22:12;101262.47;;;6.45;71.61
75420;BME280;63998;52.488;13.428;2023-01-04T07:24:37;101247.81;;;6.44;72.48
75420;BME280;63998;52.488;13.428;2023-01-04T07:27:03;101246.94;;;6.43;73.56
75420;BME280;63998;52.488;13.428;2023-01-04T07:29:28;101239.19;;;6.42;74.47
75420;BME280;63998;52.488;13.428;2023-01-04T07:31:54;101249.66;;;6.48;74.67
75420;BME280;63998;52.488;13.428;2023-01-04T07:34:22;101230.56;;;6.43;74.86
75420;BME280;63998;52.488;13.428;2023-01-04T07:36:50;101238.25;;;6.40;76.14
75420;BME280;63998;52.488;13.428;2023-01-04T07:39:16;101239.84;;;6.35;76.74
75420;BME280;63998;52.488;13.428;2023-01-04T07:41:42;101233.69;;;6.30;76.63
75420;BME280;63998;52.488;13.428;2023-01-04T07:44:09;101230.47;;;6.38;76.87
75420;BME280;63998;52.488;13.428;2023-01-04T07:46:35;101220.09;;;6.37;76.74
75420;BME280;63998;52.488;13.428;2023-01-04T07:49:03;101216.63;;;6.35;76.65
75420;BME280;63998;52.488;13.428;2023-01-04T07:51:30;101219.88;;;6.28;77.95
75420;BME280;63998;52.488;13.428;2023-01-04T07:53:56;101212.91;;;6.25;78.04
75420;BME280;63998;52.488;13.428;2023-01-04T07:56:26;101194.00;;;6.25;77.97
75420;BME280;63998;52.488;13.428;2023-01-04T07:58:51;101196.53;;;6.23;79.06
75420;BME280;63998;52.488;13.428;2023-01-04T08:01:22;101184.34;;;6.18;79.33
75420;BME280;63998;52.488;13.428;2023-01-04T08:03:49;101185.06;;;6.12;79.78
75420;BME280;63998;52.488;13.428;2023-01-04T08:06:15;101180.69;;;6.09;80.31
75420;BME280;63998;52.488;13.428;2023-01-04T08:08:44;101172.84;;;6.06;80.70
75420;BME280;63998;52.488;13.428;2023-01-04T08:11:11;101160.97;;;6.11;81.09
75420;BME280;63998;52.488;13.428;2023-01-04T08:13:38;101149.00;;;6.13;80.96
75420;BME280;63998;52.488;13.428;2023-01-04T08:16:04;101150.81;;;6.18;81.18
75420;BME280;63998;52.488;13.428;2023-01-04T08:18:31;101143.66;;;6.07;81.77
75420;BME280;63998;52.488;13.428;2023-01-04T08:21:05;101148.19;;;6.16;81.18
75420;BME280;63998;52.488;13.428;2023-01-04T08:23:32;101133.59;;;6.17;81.74
75420;BME280;63998;52.488;13.428;2023-01-04T08:26:02;101128.69;;;6.26;81.93
75420;BME280;63998;52.488;13.428;2023-01-04T08:28:29;101126.84;;;6.22;82.26
75420;BME280;63998;52.488;13.428;2023-01-04T08:30:54;101123.34;;;6.20;82.31
75420;BME280;63998;52.488;13.428;2023-01-04T08:33:24;101132.00;;;6.22;81.96
75420;BME280;63998;52.488;13.428;2023-01-04T08:35:52;101135.50;;;6.24;82.01
75420;BME280;63998;52.488;13.428;2023-01-04T08:38:17;101142.53;;;6.31;82.46
75420;BME280;63998;52.488;13.428;2023-01-04T08:40:43;101127.06;;;6.29;82.42
75420;BME280;63998;52.488;13.428;2023-01-04T08:43:08;101123.75;;;6.35;83.16
75420;BME280;63998;52.488;13.428;2023-01-04T08:45:34;101122.00;;;6.34;83.12
75420;BME280;63998;52.488;13.428;2023-01-04T08:47:59;101112.63;;;6.37;83.00
75420;BME280;63998;52.488;13.428;2023-01-04T08:50:24;101106.59;;;6.37;82.85
75420;BME280;63998;52.488;13.428;2023-01-04T08:52:49;101111.88;;;6.41;83.50
75420;BME280;63998;52.488;13.428;2023-01-04T08:55:15;101111.88;;;6.43;83.39
75420;BME280;63998;52.488;13.428;2023-01-04T08:57:40;101111.06;;;6.44;83.04
75420;BME280;63998;52.488;13.428;2023-01-04T09:00:07;101115.38;;;6.45;83.04
75420;BME280;63998;52.488;13.428;2023-01-04T09:02:34;101100.94;;;6.52;82.79
75420;BME280;63998;52.488;13.428;2023-01-04T09:05:02;101116.22;;;6.44;82.90
75420;BME280;63998;52.488;13.428;2023-01-04T09:07:31;101121.47;;;6.47;82.79
75420;BME280;63998;52.488;13.428;2023-01-04T09:09:57;101117.91;;;6.42;83.70
75420;BME280;63998;52.488;13.428;2023-01-04T09:12:23;101108.34;;;6.38;83.63
75420;BME280;63998;52.488;13.428;2023-01-04T09:14:48;101104.16;;;6.41;83.70
75420;BME280;63998;52.488;13.428;2023-01-04T09:17:14;101097.38;;;6.46;84.77
75420;BME280;63998;52.488;13.428;2023-01-04T09:19:39;101106.03;;;6.48;84.13
75420;BME280;63998;52.488;13.428;2023-01-04T09:22:07;101109.53;;;6.51;84.02
75420;BME280;63998;52.488;13.428;2023-01-04T09:24:35;101095.66;;;6.47;84.38
75420;BME280;63998;52.488;13.428;2023-01-04T09:27:00;101084.50;;;6.48;84.59
75420;BME280;63998;52.488;13.428;2023-01-04T09:29:26;101083.66;;;6.49;84.05
75420;BME280;63998;52.488;13.428;2023-01-04T09:31:54;101077.69;;;6.50;84.28
75420;BME280;63998;52.488;13.428;2023-01-04T09:34:19;101066.47;;;6.49;84.77
75420;BME280;63998;52.488;13.428;2023-01-04T09:36:46;101060.59;;;6.55;84.71
75420;BME280;63998;52.488;13.428;2023-01-04T09:39:14;101053.69;;;6.54;84.48
75420;BME280;63998;52.488;13.428;2023-01-04T09:41:55;101050.41;;;6.61;84.31
75420;BME280;63998;52.488;13.428;2023-01-04T09:44:37;101059.78;;;6.58;84.54
75420;BME280;63998;52.488;13.428;2023-01-04T09:47:09;101038.34;;;6.60;84.99
75420;BME280;63998;52.488;13.428;2023-01-04T09:49:42;101057.31;;;6.62;84.79
75420;BME280;63998;52.488;13.428;2023-01-04T09:54:48;101018.66;;;6.64;84.29
75420;BME280;63998;52.488;13.428;2023-01-04T09:57:22;101020.34;;;6.63;85.22
75420;BME280;63998;52.488;13.428;2023-01-04T09:59:55;101028.09;;;6.63;85.00
75420;BME280;63998;52.488;13.428;2023-01-04T10:02:35;101004.03;;;6.64;84.79
75420;BME280;63998;52.488;13.428;2023-01-04T10:05:04;101008.41;;;6.68;85.52
75420;BME280;63998;52.488;13.428;2023-01-04T10:07:32;101014.28;;;6.61;85.80
75420;BME280;63998;52.488;13.428;2023-01-04T10:10:03;100995.31;;;6.59;85.80
75420;BME280;63998;52.488;13.428;2023-01-04T10:12:52;100984.19;;;6.62;85.71
75420;BME280;63998;52.488;13.428;2023-01-04T10:15:37;100991.97;;;6.63;85.98
75420;BME280;63998;52.488;13.428;2023-01-04T10:23:47;100965.38;;;6.67;85.98
75420;BME280;63998;52.488;13.428;2023-01-04T10:26:29;100961.09;;;6.69;85.88
75420;BME280;63998;52.488;13.428;2023-01-04T10:29:10;100982.47;;;6.62;85.54
75420;BME280;63998;52.488;13.428;2023-01-04T10:31:47;100959.34;;;6.68;86.44
75420;BME280;63998;52.488;13.428;2023-01-04T10:34:27;100956.78;;;6.67;85.84
75420;BME280;63998;52.488;13.428;2023-01-04T10:36:59;100933.63;;;6.71;86.12
75420;BME280;63998;52.488;13.428;2023-01-04T10:39:31;100931.88;;;6.70;85.61
75420;BME280;63998;52.488;13.428;2023-01-04T10:42:33;100921.56;;;6.70;86.17
75420;BME280;63998;52.488;13.428;2023-01-04T10:45:04;100919.88;;;6.72;86.37
75420;BME280;63998;52.488;13.428;2023-01-04T10:47:36;100917.38;;;6.75;85.86
75420;BME280;63998;52.488;13.428;2023-01-04T10:50:19;100911.38;;;6.76;85.73
75420;BME280;63998;52.488;13.428;2023-01-04T10:53:03;100904.63;;;6.84;85.80
75420;BME280;63998;52.488;13.428;2023-01-04T10:58:21;100892.69;;;6.90;85.68
75420;BME280;63998;52.488;13.428;2023-01-04T11:00:52;100899.53;;;6.88;85.04
75420;BME280;63998;52.488;13.428;2023-01-04T11:03:27;100880.75;;;6.96;85.42
75420;BME280;63998;52.488;13.428;2023-01-04T11:06:23;100874.84;;;7.02;84.88
75420;BME280;63998;52.488;13.428;2023-01-04T11:09:13;100868.84;;;7.03;84.82
75420;BME280;63998;52.488;13.428;2023-01-04T11:11:46;100860.28;;;7.07;84.98
75420;BME280;63998;52.488;13.428;2023-01-04T11:14:13;100844.75;;;7.04;84.48
75420;BME280;63998;52.488;13.428;2023-01-04T11:16:41;100863.72;;;7.06;84.19
75420;BME280;63998;52.488;13.428;2023-01-04T11:19:09;100851.75;;;7.11;84.18
75420;BME280;63998;52.488;13.428;2023-01-04T11:21:48;100846.66;;;7.14;84.25
75420;BME280;63998;52.488;13.428;2023-01-04T11:24:15;100829.50;;;7.19;84.11
75420;BME280;63998;52.488;13.428;2023-01-04T11:26:43;100825.16;;;7.15;83.58
75420;BME280;63998;52.488;13.428;2023-01-04T11:29:47;100825.31;;;7.24;83.49
75420;BME280;63998;52.488;13.428;2023-01-04T11:32:19;100830.56;;;7.29;83.87
75420;BME280;63998;52.488;13.428;2023-01-04T11:34:51;100825.44;;;7.33;83.77
75420;BME280;63998;52.488;13.428;2023-01-04T11:37:37;100821.19;;;7.35;83.39
75420;BME280;63998;52.488;13.428;2023-01-04T11:42:40;100819.56;;;7.40;82.87
75420;BME280;63998;52.488;13.428;2023-01-04T11:45:16;100824.72;;;7.40;83.04
75420;BME280;63998;52.488;13.428;2023-01-04T11:50:45;100810.91;;;7.38;84.04
75420;BME280;63998;52.488;13.428;2023-01-04T11:55:48;100798.03;;;7.41;83.83
75420;BME280;63998;52.488;13.428;2023-01-04T11:58:16;100794.66;;;7.47;84.24
75420;BME280;63998;52.488;13.428;2023-01-04T12:00:54;100793.84;;;7.49;83.70
75420;BME280;63998;52.488;13.428;2023-01-04T12:03:40;100781.03;;;7.57;83.86
75420;BME280;63998;52.488;13.428;2023-01-04T12:06:21;100759.47;;;7.56;83.64
75420;BME280;63998;52.488;13.428;2023-01-04T12:08:52;100755.25;;;7.62;84.02
75420;BME280;63998;52.488;13.428;2023-01-04T12:12:01;100751.84;;;7.64;83.72
75420;BME280;63998;52.488;13.428;2023-01-04T12:14:34;100743.28;;;7.70;83.46
75420;BME280;63998;52.488;13.428;2023-01-04T12:17:06;100763.13;;;7.71;83.59
75420;BME280;63998;52.488;13.428;2023-01-04T12:19:42;100752.78;;;7.71;83.67
75420;BME280;63998;52.488;13.428;2023-01-04T12:24:45;100752.78;;;7.71;83.47
75420;BME280;63998;52.488;13.428;2023-01-04T12:27:12;100747.63;;;7.71;83.84
75420;BME280;63998;52.488;13.428;2023-01-04T12:37:04;100740.72;;;7.70;84.50
75420;BME280;63998;52.488;13.428;2023-01-04T12:39:44;100726.13;;;7.75;83.98
75420;BME280;63998;52.488;13.428;2023-01-04T12:42:14;100725.28;;;7.76;84.06
75420;BME280;63998;52.488;13.428;2023-01-04T12:54:59;100690.69;;;7.66;84.69
75420;BME280;63998;52.488;13.428;2023-01-04T12:57:31;100695.84;;;7.65;84.67
75420;BME280;63998;52.488;13.428;2023-01-04T13:02:32;100689.75;;;7.60;85.26
75420;BME280;63998;52.488;13.428;2023-01-04T13:07:40;100692.22;;;7.50;86.61
75420;BME280;63998;52.488;13.428;2023-01-04T13:18:36;100666.31;;;7.47;86.67
75420;BME280;63998;52.488;13.428;2023-01-04T13:21:54;100661.22;;;7.52;86.20
75420;BME280;63998;52.488;13.428;2023-01-04T13:23:59;100657.78;;;7.53;86.15
75420;BME280;63998;52.488;13.428;2023-01-04T13:36:53;100661.25;;;7.56;86.27
75420;BME280;63998;52.488;13.428;2023-01-04T13:39:19;100647.50;;;7.57;85.90
75420;BME280;63998;52.488;13.428;2023-01-04T13:41:45;100656.97;;;7.57;86.25
75420;BME280;63998;52.488;13.428;2023-01-04T13:44:23;100638.06;;;7.61;86.08
75420;BME280;63998;52.488;13.428;2023-01-04T13:46:54;100663.97;;;7.64;85.88
75420;BME280;63998;52.488;13.428;2023-01-04T13:49:20;100632.09;;;7.65;85.91
75420;BME280;63998;52.488;13.428;2023-01-04T13:51:48;100625.22;;;7.69;85.79
75420;BME280;63998;52.488;13.428;2023-01-04T13:54:21;100639.88;;;7.68;85.40
75420;BME280;63998;52.488;13.428;2023-01-04T13:56:47;100628.63;;;7.65;85.55
75420;BME280;63998;52.488;13.428;2023-01-04T13:59:15;100609.72;;;7.69;85.77
75420;BME280;63998;52.488;13.428;2023-01-04T14:01:45;100612.28;;;7.67;85.92
75420;BME280;63998;52.488;13.428;2023-01-04T14:04:21;100654.53;;;7.71;85.96
75420;BME280;63998;52.488;13.428;2023-01-04T14:06:50;100620.09;;;7.72;85.78
75420;BME280;63998;52.488;13.428;2023-01-04T14:09:19;100620.09;;;7.72;86.45
75420;BME280;63998;52.488;13.428;2023-01-04T14:11:54;100611.50;;;7.73;86.41
75420;BME280;63998;52.488;13.428;2023-01-04T14:19:57;100604.66;;;7.78;86.82
75420;BME280;63998;52.488;13.428;2023-01-04T14:22:25;100595.19;;;7.81;86.55
75420;BME280;63998;52.488;13.428;2023-01-04T14:24:55;100619.38;;;7.83;86.57
75420;BME280;63998;52.488;13.428;2023-01-04T14:27:41;100611.63;;;7.85;86.32
75420;BME280;63998;52.488;13.428;2023-01-04T14:32:59;100597.00;;;7.87;86.55
75420;BME280;63998;52.488;13.428;2023-01-04T14:35:27;100596.19;;;7.91;86.68
75420;BME280;63998;52.488;13.428;2023-01-04T14:37:53;100587.59;;;7.95;86.42
75420;BME280;63998;52.488;13.428;2023-01-04T14:40:23;100592.81;;;7.98;86.64
75420;BME280;63998;52.488;13.428;2023-01-04T14:42:49;100587.66;;;8.01;86.56